AFR863 DXXX-LFPG
Flight info
| Callsign | AFR863 |
|---|---|
| Flight time | N/A |
| Altitude | 38000 |
| Route | AMSOM2N AMSOM UR983 OG UR866 BULIS/N0464F400 DCT MABAP UR722 SAK UG5 KORIS DCT SVL DCT HIJ DCT RUSEM DCT SOTUK DCT USOKO DCT TLD DCT SIE DCT EDIGO DCT DGO L176 LUSEM DCT LULUT DCT POI DCT PEPAX UT182 KEPER |
| Aircraft | B772/H-SDE2E3FGHIJ5LORVWXY/LB1D1 |
Departure
| Time | 2026-05-04 06:50 |
|---|---|
| Airport | Lomé–Tokoin International Airport (DXXX) |
Arrival
| Time | N/A |
|---|---|
| Airport | Charles de Gaulle International Airport (LFPG) |
| Time | Latitude | Longitude | Altitude | Speed | Heading |
|---|---|---|---|---|---|
| 2026-05-04 06:21 | 6.16997 | 1.25428 | 85 ft | 0 kts | 309° |
| 2026-05-04 06:38 | 6.16985 | 1.25441 | 85 ft | 4 kts | 327° |
| 2026-05-04 06:40 | 6.16857 | 1.25415 | 67 ft | 0 kts | 39° |
| 2026-05-04 06:41 | 6.16873 | 1.25429 | 67 ft | 5 kts | 39° |
| 2026-05-04 06:42 | 6.16910 | 1.25459 | 67 ft | 9 kts | 39° |
| 2026-05-04 06:42 | 6.16970 | 1.25507 | 67 ft | 13 kts | 38° |
| 2026-05-04 06:42 | 6.17053 | 1.25573 | 68 ft | 17 kts | 39° |
| 2026-05-04 06:44 | 6.17693 | 1.26173 | 84 ft | 15 kts | 130° |
| 2026-05-04 06:44 | 6.17634 | 1.26234 | 71 ft | 9 kts | 156° |
| 2026-05-04 06:44 | 6.17579 | 1.26211 | 69 ft | 9 kts | 218° |
| 2026-05-04 06:45 | 6.17562 | 1.26197 | 66 ft | 0 kts | 219° |
| 2026-05-04 06:48 | 6.17526 | 1.26167 | 67 ft | 28 kts | 219° |
| 2026-05-04 06:49 | 6.17137 | 1.25859 | 65 ft | 113 kts | 218° |
| 2026-05-04 06:50 | 6.13161 | 1.26707 | 4035 ft | 223 kts | 56° |
| 2026-05-04 06:51 | 6.14158 | 1.28010 | 4283 ft | 247 kts | 45° |
| 2026-05-04 06:51 | 6.15732 | 1.28869 | 4578 ft | 271 kts | 10° |
| 2026-05-04 06:51 | 6.17572 | 1.28695 | 5515 ft | 267 kts | 343° |
| 2026-05-04 06:51 | 6.19324 | 1.27981 | 6031 ft | 279 kts | 337° |
| 2026-05-04 06:52 | 6.21104 | 1.27117 | 6626 ft | 288 kts | 336° |
| 2026-05-04 06:52 | 6.22923 | 1.26209 | 7246 ft | 294 kts | 337° |
| 2026-05-04 06:52 | 6.24770 | 1.25287 | 7919 ft | 298 kts | 338° |
| 2026-05-04 06:52 | 6.26638 | 1.24375 | 8667 ft | 300 kts | 339° |
| 2026-05-04 06:53 | 6.28527 | 1.23462 | 9335 ft | 303 kts | 340° |
| 2026-05-04 06:53 | 6.30445 | 1.22540 | 9960 ft | 308 kts | 340° |
| 2026-05-04 06:53 | 6.32408 | 1.21600 | 10306 ft | 322 kts | 340° |
| 2026-05-04 06:53 | 6.34499 | 1.20601 | 10499 ft | 342 kts | 340° |
| 2026-05-04 06:54 | 6.36681 | 1.19555 | 11001 ft | 352 kts | 339° |
| 2026-05-04 06:54 | 6.38911 | 1.18482 | 11692 ft | 358 kts | 339° |
| 2026-05-04 06:54 | 6.41164 | 1.17396 | 12590 ft | 360 kts | 339° |
| 2026-05-04 06:54 | 6.43226 | 1.16403 | 13458 ft | 361 kts | 339° |
| 2026-05-04 06:55 | 6.44805 | 1.15643 | 14054 ft | 364 kts | 339° |
| 2026-05-04 06:55 | 6.47102 | 1.14538 | 14824 ft | 368 kts | 339° |
| 2026-05-04 06:55 | 6.49428 | 1.13420 | 15603 ft | 373 kts | 339° |
| 2026-05-04 06:55 | 6.51777 | 1.12291 | 16385 ft | 378 kts | 339° |
| 2026-05-04 06:56 | 6.54135 | 1.11158 | 17170 ft | 382 kts | 339° |
| 2026-05-04 06:57 | 6.71972 | 1.04119 | 21879 ft | 406 kts | 341° |
| 2026-05-04 06:58 | 6.74638 | 1.03141 | 22501 ft | 409 kts | 341° |
| 2026-05-04 06:58 | 6.77330 | 1.02150 | 23096 ft | 413 kts | 340° |
| 2026-05-04 06:58 | 6.80037 | 1.01152 | 23662 ft | 416 kts | 340° |
| 2026-05-04 06:58 | 6.82766 | 1.00145 | 24142 ft | 420 kts | 340° |
| 2026-05-04 06:59 | 6.85518 | 0.99129 | 24641 ft | 423 kts | 340° |
| 2026-05-04 06:59 | 6.88287 | 0.98106 | 25151 ft | 425 kts | 340° |
| 2026-05-04 06:59 | 6.91029 | 0.97094 | 25641 ft | 428 kts | 340° |
| 2026-05-04 06:59 | 6.93888 | 0.96038 | 26117 ft | 432 kts | 340° |
| 2026-05-04 07:01 | 7.14213 | 0.88530 | 29492 ft | 457 kts | 339° |
| 2026-05-04 07:01 | 7.17213 | 0.87421 | 29962 ft | 461 kts | 339° |
| 2026-05-04 07:02 | 7.20235 | 0.86304 | 30368 ft | 464 kts | 339° |
| 2026-05-04 07:02 | 7.23276 | 0.85179 | 30778 ft | 467 kts | 339° |
| 2026-05-04 07:02 | 7.26333 | 0.84049 | 31225 ft | 469 kts | 339° |
| 2026-05-04 07:02 | 7.29404 | 0.82914 | 31667 ft | 471 kts | 339° |
| 2026-05-04 07:03 | 7.32490 | 0.81772 | 32071 ft | 473 kts | 339° |
| 2026-05-04 07:03 | 7.35552 | 0.80639 | 32455 ft | 476 kts | 339° |
| 2026-05-04 07:03 | 7.38673 | 0.79484 | 32855 ft | 478 kts | 339° |
| 2026-05-04 07:03 | 7.41804 | 0.78326 | 33226 ft | 481 kts | 339° |
| 2026-05-04 07:04 | 7.44954 | 0.77160 | 33579 ft | 483 kts | 339° |
| 2026-05-04 07:04 | 7.48115 | 0.75990 | 33942 ft | 485 kts | 339° |
| 2026-05-04 07:04 | 7.51293 | 0.74814 | 34258 ft | 487 kts | 339° |
| 2026-05-04 07:04 | 7.54476 | 0.73635 | 34604 ft | 488 kts | 339° |
| 2026-05-04 07:05 | 7.57659 | 0.72457 | 35005 ft | 486 kts | 339° |
| 2026-05-04 07:05 | 7.60817 | 0.71288 | 35513 ft | 482 kts | 338° |
| 2026-05-04 07:05 | 7.63951 | 0.70128 | 36017 ft | 478 kts | 338° |
| 2026-05-04 07:05 | 7.67068 | 0.68973 | 36497 ft | 475 kts | 338° |
| 2026-05-04 07:06 | 7.72204 | 0.67069 | 37227 ft | 472 kts | 338° |
| 2026-05-04 07:06 | 7.76276 | 0.65559 | 37785 ft | 469 kts | 338° |
| 2026-05-04 07:06 | 7.79340 | 0.64423 | 38032 ft | 471 kts | 338° |
| 2026-05-04 07:07 | 7.82427 | 0.63278 | 37991 ft | 474 kts | 338° |
| 2026-05-04 07:09 | 8.05716 | 0.54278 | 38003 ft | 466 kts | 333° |
| 2026-05-04 07:09 | 8.11584 | 0.51473 | 37984 ft | 467 kts | 333° |
| 2026-05-04 07:10 | 8.17441 | 0.48673 | 37989 ft | 468 kts | 333° |
| 2026-05-04 07:12 | 8.41111 | 0.37458 | 37966 ft | 470 kts | 333° |
| 2026-05-04 07:12 | 8.47027 | 0.34655 | 37973 ft | 468 kts | 333° |
| 2026-05-04 07:13 | 8.52918 | 0.31863 | 37965 ft | 466 kts | 333° |
| 2026-05-04 07:13 | 8.58778 | 0.29084 | 37965 ft | 464 kts | 333° |
| 2026-05-04 07:14 | 8.73338 | 0.22176 | 37966 ft | 463 kts | 333° |
| 2026-05-04 07:15 | 8.79163 | 0.19410 | 37965 ft | 462 kts | 333° |
| 2026-05-04 07:15 | 8.84985 | 0.16644 | 37964 ft | 462 kts | 333° |
| 2026-05-04 07:16 | 8.90804 | 0.13880 | 37978 ft | 462 kts | 333° |
| 2026-05-04 07:16 | 8.96629 | 0.11111 | 37960 ft | 462 kts | 333° |
| 2026-05-04 07:17 | 9.02458 | 0.08339 | 37959 ft | 463 kts | 333° |
| 2026-05-04 07:17 | 9.08290 | 0.05565 | 37963 ft | 463 kts | 333° |
| 2026-05-04 07:18 | 9.14129 | 0.02787 | 37956 ft | 464 kts | 332° |
| 2026-05-04 07:18 | 9.19973 | 0.00004 | 37961 ft | 464 kts | 332° |
| 2026-05-04 07:19 | 9.25830 | -0.02779 | 37960 ft | 465 kts | 333° |
| 2026-05-04 07:19 | 9.31697 | -0.05556 | 37957 ft | 465 kts | 333° |
| 2026-05-04 07:20 | 9.37530 | -0.08318 | 37957 ft | 466 kts | 333° |
| 2026-05-04 07:20 | 9.43438 | -0.11120 | 37957 ft | 466 kts | 333° |
| 2026-05-04 07:22 | 9.66825 | -0.22237 | 37954 ft | 463 kts | 332° |
| 2026-05-04 07:23 | 9.72655 | -0.25016 | 37949 ft | 462 kts | 332° |
| 2026-05-04 07:23 | 9.78474 | -0.27790 | 37945 ft | 462 kts | 332° |
| 2026-05-04 07:24 | 9.84285 | -0.30563 | 37947 ft | 461 kts | 332° |
| 2026-05-04 07:24 | 9.90093 | -0.33334 | 37947 ft | 461 kts | 332° |
| 2026-05-04 07:26 | 10.13280 | -0.44419 | 37944 ft | 461 kts | 331° |
| 2026-05-04 07:27 | 10.18998 | -0.47377 | 37946 ft | 461 kts | 330° |
| 2026-05-04 07:27 | 10.24708 | -0.50374 | 37943 ft | 462 kts | 330° |
| 2026-05-04 07:28 | 10.30431 | -0.53357 | 37946 ft | 462 kts | 330° |
| 2026-05-04 07:28 | 10.36129 | -0.56312 | 37946 ft | 463 kts | 330° |
| 2026-05-04 07:29 | 10.41868 | -0.59286 | 37951 ft | 463 kts | 330° |
| 2026-05-04 07:29 | 10.47614 | -0.62266 | 37948 ft | 464 kts | 330° |
| 2026-05-04 07:30 | 10.53361 | -0.65248 | 37949 ft | 464 kts | 330° |
| 2026-05-04 07:30 | 10.59123 | -0.68239 | 37954 ft | 464 kts | 331° |
| 2026-05-04 07:31 | 10.64877 | -0.71228 | 37947 ft | 465 kts | 331° |
| 2026-05-04 07:33 | 10.87901 | -0.83198 | 37946 ft | 465 kts | 331° |
| 2026-05-04 07:33 | 10.93656 | -0.86194 | 37945 ft | 465 kts | 330° |
| 2026-05-04 07:34 | 10.99415 | -0.89194 | 37945 ft | 465 kts | 330° |
| 2026-05-04 07:34 | 11.05253 | -0.92033 | 37944 ft | 465 kts | 334° |
| 2026-05-04 07:35 | 11.11182 | -0.94676 | 37945 ft | 465 kts | 334° |
| 2026-05-04 07:35 | 11.17092 | -0.97320 | 37947 ft | 465 kts | 334° |
| 2026-05-04 07:36 | 11.22999 | -1.00005 | 37944 ft | 465 kts | 334° |
| 2026-05-04 07:38 | 11.46594 | -1.10815 | 37945 ft | 464 kts | 333° |
| 2026-05-04 07:38 | 11.52452 | -1.13500 | 37948 ft | 464 kts | 333° |
| 2026-05-04 07:39 | 11.58351 | -1.16206 | 37948 ft | 464 kts | 333° |
| 2026-05-04 07:39 | 11.64243 | -1.18910 | 37953 ft | 464 kts | 333° |
| 2026-05-04 07:40 | 11.70138 | -1.21616 | 37953 ft | 465 kts | 333° |
| 2026-05-04 07:40 | 11.76046 | -1.24330 | 37953 ft | 465 kts | 333° |
| 2026-05-04 07:41 | 11.81954 | -1.27045 | 37951 ft | 466 kts | 333° |
| 2026-05-04 07:41 | 11.87874 | -1.29767 | 37953 ft | 467 kts | 333° |
| 2026-05-04 07:42 | 11.93797 | -1.32492 | 37952 ft | 467 kts | 333° |
| 2026-05-04 07:42 | 11.99730 | -1.35222 | 37955 ft | 467 kts | 333° |
| 2026-05-04 07:43 | 12.05657 | -1.37951 | 37961 ft | 467 kts | 333° |
| 2026-05-04 07:43 | 12.11538 | -1.40660 | 37959 ft | 466 kts | 333° |
| 2026-05-04 07:44 | 12.17433 | -1.43377 | 37957 ft | 463 kts | 333° |
| 2026-05-04 07:44 | 12.23300 | -1.46083 | 37963 ft | 461 kts | 333° |
| 2026-05-04 07:45 | 12.29142 | -1.48779 | 37967 ft | 460 kts | 333° |
| 2026-05-04 07:45 | 12.34979 | -1.51473 | 37970 ft | 460 kts | 333° |
| 2026-05-04 07:46 | 12.40833 | -1.54135 | 37973 ft | 460 kts | 333° |
| 2026-05-04 07:46 | 12.46691 | -1.56777 | 37970 ft | 460 kts | 333° |
| 2026-05-04 07:47 | 12.52546 | -1.59425 | 37966 ft | 459 kts | 333° |
| 2026-05-04 07:49 | 12.75754 | -1.69957 | 37972 ft | 456 kts | 333° |
| 2026-05-04 07:49 | 12.81551 | -1.72590 | 37972 ft | 455 kts | 332° |
| 2026-05-04 07:50 | 12.87349 | -1.75226 | 37970 ft | 455 kts | 332° |
| 2026-05-04 07:50 | 12.93134 | -1.77858 | 37966 ft | 455 kts | 332° |
| 2026-05-04 07:51 | 12.98920 | -1.80491 | 37969 ft | 455 kts | 332° |
| 2026-05-04 07:51 | 13.04669 | -1.83108 | 37973 ft | 455 kts | 332° |
| 2026-05-04 07:52 | 13.10461 | -1.85748 | 37959 ft | 455 kts | 332° |
| 2026-05-04 07:52 | 13.15260 | -1.87935 | 37974 ft | 454 kts | 332° |
| 2026-05-04 07:54 | 13.38399 | -1.98477 | 37958 ft | 454 kts | 332° |
| 2026-05-04 07:55 | 13.44141 | -2.01097 | 37954 ft | 454 kts | 332° |
| 2026-05-04 07:55 | 13.49921 | -2.03736 | 37964 ft | 454 kts | 332° |
| 2026-05-04 07:56 | 13.55701 | -2.06377 | 37959 ft | 454 kts | 332° |
| 2026-05-04 07:56 | 13.61463 | -2.09010 | 37955 ft | 453 kts | 332° |
| 2026-05-04 07:57 | 13.67234 | -2.11649 | 37953 ft | 453 kts | 332° |
| 2026-05-04 07:57 | 13.72994 | -2.14285 | 37957 ft | 452 kts | 332° |
| 2026-05-04 07:58 | 13.78708 | -2.16901 | 37948 ft | 452 kts | 332° |
| 2026-05-04 07:58 | 13.84449 | -2.19530 | 37949 ft | 452 kts | 332° |
| 2026-05-04 07:59 | 13.90193 | -2.22162 | 37961 ft | 451 kts | 332° |
| 2026-05-04 07:59 | 13.95935 | -2.24796 | 37946 ft | 451 kts | 332° |
| 2026-05-04 08:00 | 14.01668 | -2.27426 | 37954 ft | 451 kts | 332° |
| 2026-05-04 08:02 | 14.24520 | -2.37926 | 37942 ft | 449 kts | 332° |
| 2026-05-04 08:02 | 14.30218 | -2.40548 | 37932 ft | 448 kts | 332° |
| 2026-05-04 08:03 | 14.35913 | -2.43170 | 37928 ft | 448 kts | 332° |
| 2026-05-04 08:03 | 14.41599 | -2.45789 | 37930 ft | 448 kts | 332° |
| 2026-05-04 08:04 | 14.47288 | -2.48408 | 37935 ft | 448 kts | 332° |
| 2026-05-04 08:04 | 14.52975 | -2.51029 | 37936 ft | 448 kts | 332° |
| 2026-05-04 08:05 | 14.58663 | -2.53653 | 37933 ft | 448 kts | 332° |
| 2026-05-04 08:05 | 14.64346 | -2.56275 | 37933 ft | 448 kts | 332° |
| 2026-05-04 08:06 | 14.70031 | -2.58901 | 37928 ft | 448 kts | 332° |
| 2026-05-04 08:06 | 14.75724 | -2.61531 | 37931 ft | 448 kts | 332° |
| 2026-05-04 08:08 | 14.98481 | -2.72062 | 37926 ft | 450 kts | 332° |
| 2026-05-04 08:11 | 15.24404 | -2.84098 | 37930 ft | 456 kts | 332° |
| 2026-05-04 08:11 | 15.33083 | -2.88138 | 37935 ft | 456 kts | 332° |
| 2026-05-04 08:12 | 15.38838 | -2.90820 | 37926 ft | 456 kts | 332° |
| 2026-05-04 08:12 | 15.44626 | -2.93518 | 37930 ft | 456 kts | 332° |
| 2026-05-04 08:13 | 15.50409 | -2.96215 | 37928 ft | 456 kts | 332° |
| 2026-05-04 08:13 | 15.56193 | -2.98915 | 37917 ft | 455 kts | 332° |
| 2026-05-04 08:14 | 15.61975 | -3.01616 | 37915 ft | 455 kts | 332° |
| 2026-05-04 08:16 | 15.84955 | -3.12365 | 37910 ft | 451 kts | 331° |
| 2026-05-04 08:16 | 15.90685 | -3.15050 | 37910 ft | 451 kts | 331° |
| 2026-05-04 08:17 | 15.96382 | -3.17721 | 37922 ft | 451 kts | 331° |
| 2026-05-04 08:17 | 16.02104 | -3.20405 | 37915 ft | 451 kts | 331° |
| 2026-05-04 08:19 | 16.24986 | -3.31157 | 37919 ft | 451 kts | 331° |
| 2026-05-04 08:20 | 16.30699 | -3.33846 | 37920 ft | 451 kts | 331° |
| 2026-05-04 08:20 | 16.36419 | -3.36540 | 37922 ft | 451 kts | 331° |
| 2026-05-04 08:21 | 16.42137 | -3.39234 | 37918 ft | 451 kts | 331° |
| 2026-05-04 08:21 | 16.47817 | -3.41910 | 37915 ft | 450 kts | 331° |
| 2026-05-04 08:22 | 16.53521 | -3.44600 | 37912 ft | 450 kts | 331° |
| 2026-05-04 08:24 | 16.76315 | -3.55371 | 37906 ft | 449 kts | 330° |
| 2026-05-04 08:24 | 16.82006 | -3.58065 | 37911 ft | 449 kts | 330° |
| 2026-05-04 08:25 | 16.87707 | -3.60766 | 37903 ft | 450 kts | 330° |
| 2026-05-04 08:25 | 16.93408 | -3.63467 | 37907 ft | 450 kts | 330° |
| 2026-05-04 08:27 | 17.16153 | -3.74265 | 37909 ft | 448 kts | 330° |
| 2026-05-04 08:28 | 17.21829 | -3.76965 | 37910 ft | 448 kts | 330° |
| 2026-05-04 08:28 | 17.27513 | -3.79670 | 37909 ft | 448 kts | 330° |
| 2026-05-04 08:29 | 17.33150 | -3.82354 | 37921 ft | 448 kts | 330° |
| 2026-05-04 08:31 | 17.55871 | -3.93192 | 37915 ft | 449 kts | 330° |
| 2026-05-04 08:33 | 17.78564 | -4.04047 | 37926 ft | 449 kts | 330° |
| 2026-05-04 08:35 | 18.01275 | -4.14941 | 37931 ft | 448 kts | 330° |
| 2026-05-04 08:35 | 18.06956 | -4.17671 | 37931 ft | 448 kts | 330° |
| 2026-05-04 08:37 | 18.26797 | -4.27221 | 37931 ft | 448 kts | 329° |
| 2026-05-04 08:38 | 18.32467 | -4.29954 | 37934 ft | 448 kts | 329° |
| 2026-05-04 08:38 | 18.38142 | -4.32692 | 37942 ft | 448 kts | 329° |
| 2026-05-04 08:40 | 18.60824 | -4.43655 | 37937 ft | 449 kts | 329° |
| 2026-05-04 08:41 | 18.66516 | -4.46411 | 37939 ft | 449 kts | 329° |
| 2026-05-04 08:41 | 18.71237 | -4.48698 | 37939 ft | 449 kts | 329° |
| 2026-05-04 08:42 | 18.76921 | -4.51454 | 37945 ft | 449 kts | 329° |
| 2026-05-04 08:42 | 18.82610 | -4.54214 | 37942 ft | 449 kts | 329° |
| 2026-05-04 08:43 | 18.88297 | -4.56976 | 37942 ft | 449 kts | 329° |
| 2026-05-04 08:43 | 18.93983 | -4.59739 | 37942 ft | 449 kts | 329° |
| 2026-05-04 08:44 | 18.99664 | -4.62502 | 37945 ft | 450 kts | 329° |
| 2026-05-04 08:46 | 19.22394 | -4.73578 | 37941 ft | 451 kts | 329° |
| 2026-05-04 08:46 | 19.28089 | -4.76359 | 37946 ft | 451 kts | 329° |
| 2026-05-04 08:47 | 19.33787 | -4.79143 | 37943 ft | 451 kts | 329° |
| 2026-05-04 08:47 | 19.39477 | -4.81925 | 37946 ft | 451 kts | 329° |
| 2026-05-04 08:48 | 19.45181 | -4.84715 | 37949 ft | 451 kts | 329° |
| 2026-05-04 08:48 | 19.50880 | -4.87505 | 37946 ft | 451 kts | 329° |
| 2026-05-04 08:49 | 19.56582 | -4.90298 | 37950 ft | 451 kts | 329° |
| 2026-05-04 08:50 | 19.76474 | -5.00065 | 37959 ft | 451 kts | 329° |
| 2026-05-04 08:51 | 19.82170 | -5.02866 | 37951 ft | 451 kts | 329° |
| 2026-05-04 08:51 | 19.87863 | -5.05669 | 37947 ft | 451 kts | 329° |
| 2026-05-04 08:52 | 19.93560 | -5.08475 | 37950 ft | 451 kts | 329° |
| 2026-05-04 08:52 | 19.99218 | -5.11264 | 37952 ft | 451 kts | 329° |
| 2026-05-04 08:54 | 20.22001 | -5.22519 | 37951 ft | 452 kts | 329° |
| 2026-05-04 08:55 | 20.27702 | -5.25341 | 37949 ft | 452 kts | 329° |
| 2026-05-04 08:55 | 20.33404 | -5.28166 | 37951 ft | 451 kts | 329° |
| 2026-05-04 09:01 | 20.93106 | -5.57872 | 37953 ft | 451 kts | 329° |
| 2026-05-04 09:01 | 20.98795 | -5.60715 | 37950 ft | 451 kts | 329° |
| 2026-05-04 09:02 | 21.04480 | -5.63558 | 37951 ft | 451 kts | 329° |
| 2026-05-04 09:02 | 21.10164 | -5.66403 | 37961 ft | 451 kts | 328° |
| 2026-05-04 09:03 | 21.15854 | -5.69254 | 37953 ft | 452 kts | 328° |
| 2026-05-04 09:03 | 21.21548 | -5.72109 | 37952 ft | 451 kts | 328° |
| 2026-05-04 09:04 | 21.27237 | -5.74963 | 37951 ft | 451 kts | 328° |
| 2026-05-04 09:04 | 21.32924 | -5.77819 | 37954 ft | 451 kts | 328° |
| 2026-05-04 09:05 | 21.38586 | -5.80666 | 37957 ft | 451 kts | 328° |
| 2026-05-04 09:05 | 21.44312 | -5.83547 | 37956 ft | 451 kts | 328° |
| 2026-05-04 09:06 | 21.50004 | -5.86413 | 37956 ft | 451 kts | 328° |
| 2026-05-04 09:08 | 21.72736 | -5.97885 | 37966 ft | 451 kts | 328° |
| 2026-05-04 09:08 | 21.78419 | -6.00759 | 37956 ft | 451 kts | 328° |
| 2026-05-04 09:09 | 21.84062 | -6.03615 | 37964 ft | 451 kts | 328° |
| 2026-05-04 09:09 | 21.89735 | -6.06491 | 37964 ft | 450 kts | 328° |
| 2026-05-04 09:10 | 21.95405 | -6.09366 | 37970 ft | 450 kts | 328° |
| 2026-05-04 09:10 | 22.01073 | -6.12243 | 37967 ft | 450 kts | 328° |
| 2026-05-04 09:11 | 22.06748 | -6.15126 | 37974 ft | 451 kts | 328° |
| 2026-05-04 09:11 | 22.12422 | -6.18010 | 37965 ft | 450 kts | 328° |
| 2026-05-04 09:12 | 22.18081 | -6.20891 | 37965 ft | 450 kts | 328° |
| 2026-05-04 09:14 | 22.40677 | -6.32421 | 37968 ft | 449 kts | 327° |
| 2026-05-04 09:14 | 22.46334 | -6.35314 | 37968 ft | 449 kts | 327° |
| 2026-05-04 09:15 | 22.51984 | -6.38206 | 37971 ft | 448 kts | 327° |
| 2026-05-04 09:15 | 22.57622 | -6.41095 | 37966 ft | 449 kts | 327° |
| 2026-05-04 09:17 | 22.82969 | -6.54114 | 37975 ft | 448 kts | 327° |
| 2026-05-04 09:18 | 22.88597 | -6.57012 | 37978 ft | 447 kts | 327° |
| 2026-05-04 09:18 | 22.94219 | -6.59910 | 37977 ft | 447 kts | 327° |
| 2026-05-04 09:19 | 22.99804 | -6.62791 | 37991 ft | 447 kts | 327° |
| 2026-05-04 09:19 | 23.05412 | -6.65686 | 37973 ft | 445 kts | 327° |
| 2026-05-04 09:20 | 23.10997 | -6.68572 | 37985 ft | 444 kts | 327° |
| 2026-05-04 09:20 | 23.16576 | -6.71459 | 37977 ft | 443 kts | 327° |
| 2026-05-04 09:21 | 23.22150 | -6.74346 | 37978 ft | 443 kts | 327° |
| 2026-05-04 09:21 | 23.27687 | -6.77217 | 37983 ft | 444 kts | 327° |
| 2026-05-04 09:22 | 23.33270 | -6.80113 | 37989 ft | 444 kts | 327° |
| 2026-05-04 09:22 | 23.38855 | -6.83013 | 37982 ft | 444 kts | 327° |
| 2026-05-04 09:23 | 23.44436 | -6.85914 | 37983 ft | 444 kts | 327° |
| 2026-05-04 09:23 | 23.50011 | -6.88815 | 37986 ft | 444 kts | 327° |
| 2026-05-04 09:25 | 23.72281 | -7.00430 | 37992 ft | 444 kts | 326° |
| 2026-05-04 09:26 | 23.77846 | -7.03340 | 37990 ft | 443 kts | 326° |
| 2026-05-04 09:26 | 23.82468 | -7.05760 | 37990 ft | 443 kts | 326° |
| 2026-05-04 09:27 | 23.88976 | -7.09170 | 37993 ft | 443 kts | 326° |
| 2026-05-04 09:27 | 23.94536 | -7.12087 | 37995 ft | 444 kts | 326° |
| 2026-05-04 09:28 | 23.99170 | -7.14520 | 37993 ft | 444 kts | 326° |
| 2026-05-04 09:28 | 24.05644 | -7.17922 | 37992 ft | 444 kts | 326° |
| 2026-05-04 09:29 | 24.10219 | -7.20329 | 37994 ft | 444 kts | 326° |
| 2026-05-04 09:29 | 24.15785 | -7.23260 | 37994 ft | 444 kts | 326° |
| 2026-05-04 09:30 | 24.21363 | -7.26200 | 38022 ft | 444 kts | 326° |
| 2026-05-04 09:30 | 24.26945 | -7.29145 | 38003 ft | 446 kts | 326° |
| 2026-05-04 09:31 | 24.32522 | -7.32090 | 38000 ft | 446 kts | 326° |
| 2026-05-04 09:31 | 24.38115 | -7.35045 | 37999 ft | 446 kts | 326° |
| 2026-05-04 09:32 | 24.43695 | -7.37997 | 37998 ft | 446 kts | 326° |
| 2026-05-04 09:34 | 24.65972 | -7.49813 | 38005 ft | 445 kts | 326° |
| 2026-05-04 09:34 | 24.71549 | -7.52778 | 38008 ft | 445 kts | 326° |
| 2026-05-04 09:35 | 24.77120 | -7.55744 | 38006 ft | 445 kts | 326° |
| 2026-05-04 09:35 | 24.82691 | -7.58712 | 38040 ft | 445 kts | 325° |
| 2026-05-04 09:37 | 25.04753 | -7.70497 | 38010 ft | 440 kts | 325° |
| 2026-05-04 09:38 | 25.10270 | -7.73452 | 38200 ft | 442 kts | 325° |
| 2026-05-04 09:38 | 25.13045 | -7.74940 | 38366 ft | 444 kts | 325° |
| 2026-05-04 09:38 | 25.15824 | -7.76430 | 38503 ft | 444 kts | 324° |
| 2026-05-04 09:39 | 25.18599 | -7.77916 | 38631 ft | 443 kts | 324° |
| 2026-05-04 09:39 | 25.21368 | -7.79399 | 38748 ft | 441 kts | 324° |
| 2026-05-04 09:39 | 25.24130 | -7.80880 | 38860 ft | 441 kts | 324° |
| 2026-05-04 09:39 | 25.26884 | -7.82358 | 38972 ft | 440 kts | 324° |
| 2026-05-04 09:40 | 25.29635 | -7.83835 | 39167 ft | 437 kts | 324° |
| 2026-05-04 09:40 | 25.32366 | -7.85302 | 39394 ft | 435 kts | 324° |
| 2026-05-04 09:40 | 25.35074 | -7.86758 | 39616 ft | 434 kts | 324° |
| 2026-05-04 09:40 | 25.37747 | -7.88197 | 39849 ft | 434 kts | 324° |
| 2026-05-04 09:42 | 25.60116 | -8.00273 | 40006 ft | 457 kts | 325° |
| 2026-05-04 09:43 | 25.65825 | -8.03355 | 40008 ft | 455 kts | 325° |
| 2026-05-04 09:43 | 25.71518 | -8.06436 | 40007 ft | 454 kts | 324° |
| 2026-05-04 09:44 | 25.77154 | -8.09490 | 40011 ft | 453 kts | 324° |
| 2026-05-04 09:46 | 25.99633 | -8.21706 | 40007 ft | 447 kts | 324° |
| 2026-05-04 09:46 | 26.05224 | -8.24754 | 40015 ft | 447 kts | 324° |
| 2026-05-04 09:47 | 26.10810 | -8.27802 | 40008 ft | 447 kts | 324° |
| 2026-05-04 09:49 | 26.33194 | -8.40046 | 40037 ft | 451 kts | 324° |
| 2026-05-04 09:51 | 26.52964 | -8.50901 | 40006 ft | 452 kts | 324° |
| 2026-05-04 09:51 | 26.58618 | -8.54014 | 40007 ft | 452 kts | 324° |
| 2026-05-04 09:52 | 26.64226 | -8.57105 | 40020 ft | 452 kts | 324° |
| 2026-05-04 09:52 | 26.69873 | -8.60220 | 40004 ft | 451 kts | 324° |
| 2026-05-04 09:53 | 26.75501 | -8.63328 | 39999 ft | 451 kts | 324° |
| 2026-05-04 09:53 | 26.81121 | -8.66436 | 40017 ft | 450 kts | 324° |
| 2026-05-04 09:54 | 26.86731 | -8.69542 | 40020 ft | 449 kts | 324° |
| 2026-05-04 09:54 | 26.92334 | -8.72648 | 40026 ft | 449 kts | 324° |
| 2026-05-04 09:55 | 26.97934 | -8.75756 | 40015 ft | 449 kts | 324° |
| 2026-05-04 09:55 | 27.03505 | -8.78850 | 40007 ft | 449 kts | 324° |
| 2026-05-04 09:56 | 27.09110 | -8.81966 | 40007 ft | 449 kts | 324° |
| 2026-05-04 09:56 | 27.14707 | -8.85082 | 40012 ft | 449 kts | 324° |
| 2026-05-04 09:57 | 27.20302 | -8.88201 | 40030 ft | 449 kts | 324° |
| 2026-05-04 09:57 | 27.25911 | -8.91331 | 40013 ft | 450 kts | 324° |
| 2026-05-04 09:58 | 27.31522 | -8.94466 | 40009 ft | 450 kts | 324° |
| 2026-05-04 09:58 | 27.37140 | -8.97607 | 40010 ft | 451 kts | 324° |
| 2026-05-04 10:00 | 27.59625 | -9.10218 | 40019 ft | 452 kts | 324° |
| 2026-05-04 10:02 | 27.82337 | -9.11168 | 40017 ft | 500 kts | 3° |
| 2026-05-04 10:04 | 28.06208 | -9.06156 | 40000 ft | 499 kts | 2° |
| 2026-05-04 10:04 | 28.13042 | -9.04764 | 39998 ft | 499 kts | 2° |
| 2026-05-04 10:05 | 28.19877 | -9.03366 | 40001 ft | 498 kts | 2° |
| 2026-05-04 10:05 | 28.26698 | -9.01968 | 39988 ft | 498 kts | 2° |
| 2026-05-04 10:06 | 28.33508 | -9.00569 | 39993 ft | 497 kts | 2° |
| 2026-05-04 10:06 | 28.40263 | -8.99180 | 39995 ft | 496 kts | 1° |
| 2026-05-04 10:08 | 28.64025 | -8.94284 | 39964 ft | 494 kts | 1° |
| 2026-05-04 10:08 | 28.70798 | -8.92884 | 39963 ft | 495 kts | 1° |
| 2026-05-04 10:09 | 28.77576 | -8.91481 | 39952 ft | 494 kts | 1° |
| 2026-05-04 10:09 | 28.84306 | -8.90086 | 39945 ft | 494 kts | 1° |
| 2026-05-04 10:10 | 28.91067 | -8.88682 | 39947 ft | 494 kts | 1° |
| 2026-05-04 10:10 | 28.97827 | -8.87278 | 39966 ft | 494 kts | 1° |
| 2026-05-04 10:11 | 29.04595 | -8.85870 | 39935 ft | 494 kts | 1° |
| 2026-05-04 10:11 | 29.11359 | -8.84460 | 39950 ft | 493 kts | 1° |
| 2026-05-04 10:12 | 29.18111 | -8.83052 | 39936 ft | 493 kts | 1° |
| 2026-05-04 10:12 | 29.24860 | -8.81641 | 39979 ft | 493 kts | 1° |
| 2026-05-04 10:13 | 29.31622 | -8.80226 | 39969 ft | 494 kts | 1° |
| 2026-05-04 10:13 | 29.38378 | -8.78811 | 39944 ft | 494 kts | 1° |
| 2026-05-04 10:14 | 29.45135 | -8.77393 | 39960 ft | 493 kts | 1° |
| 2026-05-04 10:16 | 29.72117 | -8.71715 | 39991 ft | 494 kts | 1° |
| 2026-05-04 10:16 | 29.77730 | -8.70528 | 40016 ft | 493 kts | 1° |
| 2026-05-04 10:17 | 29.85581 | -8.68868 | 40035 ft | 493 kts | 1° |
| 2026-05-04 10:19 | 30.11421 | -8.63385 | 40043 ft | 491 kts | 1° |
| 2026-05-04 10:19 | 30.18150 | -8.61951 | 40038 ft | 491 kts | 1° |
| 2026-05-04 10:20 | 30.24817 | -8.60531 | 40036 ft | 490 kts | 1° |
| 2026-05-04 10:20 | 30.31525 | -8.59100 | 40057 ft | 489 kts | 1° |
| 2026-05-04 10:21 | 30.38236 | -8.57664 | 40049 ft | 491 kts | 1° |
| 2026-05-04 10:21 | 30.44964 | -8.56224 | 40041 ft | 492 kts | 1° |
| 2026-05-04 10:22 | 30.55071 | -8.54057 | 40050 ft | 493 kts | 1° |
| 2026-05-04 10:23 | 30.61817 | -8.52608 | 40046 ft | 493 kts | 1° |